PWSweather.com
Personal Weather Stations
Station Observations
828767
Clearbrook, ClearbrookGB PL6

ClearbrookClearbrookGB PL6

Lat: 50.458829, Lon: -4.093856

Elevation: 453

Station Type: Davis Vantage Pro 2 Plus

http://www.dartmoorwalker.co.uk/weather

Latest ConditionsUpdated 11:00:00 PM GMT Wednesday, Oct 16, 2019
Currently Today's Max Today's Min Today's Average
Temperature 45.4°F7.4°C 58.8°F14.9°C 42.5°F5.8°C 52.2°F11.2°C
Dew Point 44.6°F7.0°C 58.2°F14.6°C 41.3°F5.2°C 49.1°F9.5°C
Winds Calm Calm 4.0 mph -6.4 kmh - - 0.7 mph 1.1 kmh
Wind Gusts 5.0 mph8.0 kmh 13.0 mph20.9 kmh - -
Humidity 97% 98% 71% 89%
Pressure 29.21 in989.2 mb 29.21 in989.2 mb 29.21 in989.2 mb -
Hour Temp Dew Point Humidity Winds Wind Gusts Pressure Precip Precip Rate Daily Precip Total
11:00 PM 45.4°F7.4°C 44.6°F7.0°C 97% Calm Calm 5.0 mph8.0 kmh 29.21 in989.2 mb 0.02 in0.5 mm 0.01 in0.3 mm 0.12 in3.0 mm
10:55 PM 44.9°F7.2°C 44.1°F6.7°C 97% Calm Calm -- 29.21 in989.2 mb 0.01 in0.3 mm 0.00 in0.0 mm 0.14 in3.6 mm
10:50 PM 44.8°F7.1°C 44.0°F6.7°C 97% Calm Calm -- 29.21 in989.2 mb 0.01 in0.3 mm 0.12 in3.0 mm 0.14 in3.6 mm
10:45 PM 44.6°F7.0°C 43.8°F6.6°C 97% Calm Calm -- 29.21 in989.2 mb 0.00 in0.0 mm 0.00 in0.0 mm 0.13 in3.3 mm
10:40 PM 44.4°F6.9°C 43.6°F6.4°C 97% Calm Calm -- 29.21 in989.2 mb 0.00 in0.0 mm 0.00 in0.0 mm 0.13 in3.3 mm
10:35 PM 44.0°F6.7°C 43.2°F6.2°C 97% Calm Calm -- 29.21 in989.2 mb 0.00 in0.0 mm 0.00 in0.0 mm 0.13 in3.3 mm
10:30 PM 43.5°F6.4°C 42.7°F5.9°C 97% Calm Calm -- 29.21 in989.2 mb 0.00 in0.0 mm 0.00 in0.0 mm 0.13 in3.3 mm
10:25 PM 43.4°F6.3°C 42.6°F5.9°C 97% Calm Calm -- 29.21 in989.2 mb 0.00 in0.0 mm 0.00 in0.0 mm 0.13 in3.3 mm
10:20 PM 43.2°F6.2°C 42.4°F5.8°C 97% Calm Calm -- 29.21 in989.2 mb 0.00 in0.0 mm 0.00 in0.0 mm 0.13 in3.3 mm
10:15 PM 43.1°F6.2°C 42.3°F5.7°C 97% Calm Calm -- 29.21 in989.2 mb 0.00 in0.0 mm 0.00 in0.0 mm 0.13 in3.3 mm
10:10 PM 42.9°F6.1°C 42.1°F5.6°C 97% Calm Calm -- 29.21 in989.2 mb 0.00 in0.0 mm 0.00 in0.0 mm 0.13 in3.3 mm
10:05 PM 42.7°F5.9°C 41.6°F5.3°C 96% Calm Calm -- 29.21 in989.2 mb 0.00 in0.0 mm 0.00 in0.0 mm 0.13 in3.3 mm
10:00 PM 42.7°F5.9°C 41.6°F5.3°C 96% Calm Calm -- 29.21 in989.2 mb 0.00 in0.0 mm 0.00 in0.0 mm 0.13 in3.3 mm
09:55 PM 42.7°F5.9°C 41.6°F5.3°C 96% Calm Calm -- 29.21 in989.2 mb 0.00 in0.0 mm 0.00 in0.0 mm 0.13 in3.3 mm
09:50 PM 42.7°F5.9°C 41.6°F5.3°C 96% Calm Calm -- 29.21 in989.2 mb 0.00 in0.0 mm 0.00 in0.0 mm 0.13 in3.3 mm
09:45 PM 42.5°F5.8°C 41.4°F5.2°C 96% Calm Calm -- 29.21 in989.2 mb 0.00 in0.0 mm 0.00 in0.0 mm 0.13 in3.3 mm
09:40 PM 42.6°F5.9°C 41.3°F5.2°C 95% Calm Calm -- 29.21 in989.2 mb 0.00 in0.0 mm 0.00 in0.0 mm 0.13 in3.3 mm
09:35 PM 42.8°F6.0°C 41.5°F5.3°C 95% Calm Calm -- 29.21 in989.2 mb 0.00 in0.0 mm 0.00 in0.0 mm 0.13 in3.3 mm
09:30 PM 43.0°F6.1°C 41.9°F5.5°C 96% Calm Calm -- 29.21 in989.2 mb 0.00 in0.0 mm 0.00 in0.0 mm 0.13 in3.3 mm
09:25 PM 43.1°F6.2°C 42.0°F5.6°C 96% Calm Calm -- 29.21 in989.2 mb 0.00 in0.0 mm 0.00 in0.0 mm 0.13 in3.3 mm
09:20 PM 43.2°F6.2°C 42.1°F5.6°C 96% Calm Calm 1.0 mph1.6 kmh 29.21 in989.2 mb 0.00 in0.0 mm 0.00 in0.0 mm 0.13 in3.3 mm
09:15 PM 43.1°F6.2°C 42.0°F5.6°C 96% Calm Calm 1.0 mph1.6 kmh 29.21 in989.2 mb 0.00 in0.0 mm 0.00 in0.0 mm 0.13 in3.3 mm
09:10 PM 43.1°F6.2°C 42.0°F5.6°C 96% Calm Calm -- 29.21 in989.2 mb 0.00 in0.0 mm 0.00 in0.0 mm 0.13 in3.3 mm
09:05 PM 43.2°F6.2°C 42.1°F5.6°C 96% Calm Calm -- 29.21 in989.2 mb 0.00 in0.0 mm 0.00 in0.0 mm 0.13 in3.3 mm
09:00 PM 43.0°F6.1°C 42.2°F5.7°C 97% Calm Calm -- 29.21 in989.2 mb 0.00 in0.0 mm 0.00 in0.0 mm 0.13 in3.3 mm
08:55 PM 42.8°F6.0°C 41.7°F5.4°C 96% Calm Calm -- 29.21 in989.2 mb 0.00 in0.0 mm 0.00 in0.0 mm 0.13 in3.3 mm
08:50 PM 42.7°F5.9°C 41.6°F5.3°C 96% Calm Calm -- 29.21 in989.2 mb 0.00 in0.0 mm 0.00 in0.0 mm 0.13 in3.3 mm
08:45 PM 42.7°F5.9°C 41.6°F5.3°C 96% Calm Calm -- 29.21 in989.2 mb 0.00 in0.0 mm 0.00 in0.0 mm 0.13 in3.3 mm
08:40 PM 42.7°F5.9°C 41.4°F5.2°C 95% Calm Calm -- 29.21 in989.2 mb 0.00 in0.0 mm 0.00 in0.0 mm 0.13 in3.3 mm
08:35 PM 42.7°F5.9°C 41.6°F5.3°C 96% Calm Calm -- 29.21 in989.2 mb 0.00 in0.0 mm 0.00 in0.0 mm 0.13 in3.3 mm
08:30 PM 42.9°F6.1°C 41.6°F5.3°C 95% Calm Calm -- 29.21 in989.2 mb 0.00 in0.0 mm 0.00 in0.0 mm 0.13 in3.3 mm
08:25 PM 42.9°F6.1°C 41.6°F5.3°C 95% Calm Calm -- 29.21 in989.2 mb 0.00 in0.0 mm 0.00 in0.0 mm 0.13 in3.3 mm
08:20 PM 42.9°F6.1°C 41.8°F5.4°C 96% Calm Calm -- 29.21 in989.2 mb 0.00 in0.0 mm 0.00 in0.0 mm 0.13 in3.3 mm
08:15 PM 42.8°F6.0°C 41.5°F5.3°C 95% Calm Calm -- 29.21 in989.2 mb 0.00 in0.0 mm 0.00 in0.0 mm 0.13 in3.3 mm
08:10 PM 42.8°F6.0°C 41.5°F5.3°C 95% Calm Calm -- 29.21 in989.2 mb 0.00 in0.0 mm 0.00 in0.0 mm 0.13 in3.3 mm
08:05 PM 42.9°F6.1°C 41.6°F5.3°C 95% Calm Calm -- 29.21 in989.2 mb 0.00 in0.0 mm 0.00 in0.0 mm 0.13 in3.3 mm
08:00 PM 43.0°F6.1°C 41.4°F5.2°C 94% Calm Calm -- 29.21 in989.2 mb 0.00 in0.0 mm 0.00 in0.0 mm 0.13 in3.3 mm
07:55 PM 43.2°F6.2°C 41.9°F5.5°C 95% Calm Calm -- 29.21 in989.2 mb 0.00 in0.0 mm 0.00 in0.0 mm 0.13 in3.3 mm
07:50 PM 43.3°F6.3°C 42.0°F5.6°C 95% Calm Calm -- 29.21 in989.2 mb 0.00 in0.0 mm 0.00 in0.0 mm 0.13 in3.3 mm
07:45 PM 43.5°F6.4°C 42.2°F5.7°C 95% Calm Calm -- 29.21 in989.2 mb 0.00 in0.0 mm 0.00 in0.0 mm 0.13 in3.3 mm
07:40 PM 43.5°F6.4°C 42.2°F5.7°C 95% Calm Calm -- 29.21 in989.2 mb 0.00 in0.0 mm 0.00 in0.0 mm 0.13 in3.3 mm
07:35 PM 43.5°F6.4°C 42.2°F5.7°C 95% Calm Calm -- 29.21 in989.2 mb 0.00 in0.0 mm 0.00 in0.0 mm 0.13 in3.3 mm
07:30 PM 43.5°F6.4°C 42.2°F5.7°C 95% Calm Calm -- 29.21 in989.2 mb 0.00 in0.0 mm 0.00 in0.0 mm 0.13 in3.3 mm
07:25 PM 43.4°F6.3°C 42.1°F5.6°C 95% Calm Calm -- 29.21 in989.2 mb 0.00 in0.0 mm 0.00 in0.0 mm 0.13 in3.3 mm
07:20 PM 43.4°F6.3°C 42.1°F5.6°C 95% Calm Calm -- 29.21 in989.2 mb 0.00 in0.0 mm 0.00 in0.0 mm 0.13 in3.3 mm
07:15 PM 43.5°F6.4°C 41.9°F5.5°C 94% Calm Calm -- 29.21 in989.2 mb 0.00 in0.0 mm 0.00 in0.0 mm 0.13 in3.3 mm
07:10 PM 43.6°F6.4°C 41.7°F5.4°C 93% Calm Calm -- 29.21 in989.2 mb 0.00 in0.0 mm 0.00 in0.0 mm 0.13 in3.3 mm
07:05 PM 43.9°F6.6°C 42.0°F5.6°C 93% Calm Calm -- 29.21 in989.2 mb 0.00 in0.0 mm 0.00 in0.0 mm 0.13 in3.3 mm
07:00 PM 44.2°F6.8°C 42.3°F5.7°C 93% Calm Calm -- 29.21 in989.2 mb 0.00 in0.0 mm 0.00 in0.0 mm 0.13 in3.3 mm
06:55 PM 44.4°F6.9°C 42.2°F5.7°C 92% Calm Calm -- 29.21 in989.2 mb 0.00 in0.0 mm 0.00 in0.0 mm 0.13 in3.3 mm
06:50 PM 44.7°F7.1°C 42.5°F5.8°C 92% Calm Calm -- 29.21 in989.2 mb 0.00 in0.0 mm 0.00 in0.0 mm 0.13 in3.3 mm
06:45 PM 45.0°F7.2°C 42.8°F6.0°C 92% Calm Calm -- 29.21 in989.2 mb 0.00 in0.0 mm 0.00 in0.0 mm 0.13 in3.3 mm
06:40 PM 45.4°F7.4°C 42.9°F6.1°C 91% Calm Calm -- 29.21 in989.2 mb 0.00 in0.0 mm 0.00 in0.0 mm 0.13 in3.3 mm
06:35 PM 45.8°F7.7°C 43.3°F6.3°C 91% Calm Calm -- 29.21 in989.2 mb 0.00 in0.0 mm 0.00 in0.0 mm 0.13 in3.3 mm
06:30 PM 46.1°F7.8°C 43.6°F6.4°C 91% Calm Calm -- 29.21 in989.2 mb 0.00 in0.0 mm 0.00 in0.0 mm 0.13 in3.3 mm
06:25 PM 46.4°F8.0°C 44.2°F6.8°C 92% Calm Calm -- 29.21 in989.2 mb 0.00 in0.0 mm 0.00 in0.0 mm 0.13 in3.3 mm
06:20 PM 46.6°F8.1°C 44.1°F6.7°C 91% Calm Calm -- 29.21 in989.2 mb 0.00 in0.0 mm 0.00 in0.0 mm 0.13 in3.3 mm
06:15 PM 46.9°F8.3°C 44.7°F7.1°C 92% Calm Calm -- 29.21 in989.2 mb 0.00 in0.0 mm 0.00 in0.0 mm 0.13 in3.3 mm
06:10 PM 47.0°F8.3°C 44.8°F7.1°C 92% Calm Calm -- 29.21 in989.2 mb 0.00 in0.0 mm 0.00 in0.0 mm 0.13 in3.3 mm
06:05 PM 47.2°F8.4°C 44.7°F7.1°C 91% Calm Calm -- 29.21 in989.2 mb 0.00 in0.0 mm 0.00 in0.0 mm 0.13 in3.3 mm
06:00 PM 47.4°F8.6°C 44.9°F7.2°C 91% Calm Calm -- 29.21 in989.2 mb 0.00 in0.0 mm 0.00 in0.0 mm 0.13 in3.3 mm
05:55 PM 47.6°F8.7°C 45.1°F7.3°C 91% Calm Calm -- 29.21 in989.2 mb 0.00 in0.0 mm 0.00 in0.0 mm 0.13 in3.3 mm
05:50 PM 47.9°F8.8°C 45.1°F7.3°C 90% Calm Calm -- 29.21 in989.2 mb 0.00 in0.0 mm 0.00 in0.0 mm 0.13 in3.3 mm
05:45 PM 48.3°F9.1°C 45.5°F7.5°C 90% Calm Calm -- 29.21 in989.2 mb 0.00 in0.0 mm 0.00 in0.0 mm 0.13 in3.3 mm
05:40 PM 48.7°F9.3°C 45.6°F7.6°C 89% Calm Calm -- 29.21 in989.2 mb 0.00 in0.0 mm 0.00 in0.0 mm 0.13 in3.3 mm
05:35 PM 49.2°F9.6°C 45.8°F7.7°C 88% Calm Calm -- 29.21 in989.2 mb 0.00 in0.0 mm 0.00 in0.0 mm 0.13 in3.3 mm
05:30 PM 49.9°F9.9°C 46.2°F7.9°C 87% Calm Calm -- 29.21 in989.2 mb 0.00 in0.0 mm 0.00 in0.0 mm 0.13 in3.3 mm
05:25 PM 50.5°F10.3°C 46.5°F8.1°C 86% Calm Calm -- 29.21 in989.2 mb 0.00 in0.0 mm 0.00 in0.0 mm 0.13 in3.3 mm
05:20 PM 51.3°F10.7°C 46.9°F8.3°C 85% Calm Calm -- 29.21 in989.2 mb 0.00 in0.0 mm 0.00 in0.0 mm 0.13 in3.3 mm
05:15 PM 52.1°F11.2°C 47.4°F8.6°C 84% Calm Calm -- 29.21 in989.2 mb 0.00 in0.0 mm 0.00 in0.0 mm 0.13 in3.3 mm
05:10 PM 53.0°F11.7°C 48.0°F8.9°C 83% Calm Calm -- 29.21 in989.2 mb 0.00 in0.0 mm 0.00 in0.0 mm 0.13 in3.3 mm
05:05 PM 53.7°F12.1°C 47.7°F8.7°C 80% Calm Calm -- 29.21 in989.2 mb 0.00 in0.0 mm 0.00 in0.0 mm 0.13 in3.3 mm
05:00 PM 54.2°F12.3°C 48.2°F9.0°C 80% Calm Calm 3.0 mph4.8 kmh 29.21 in989.2 mb 0.00 in0.0 mm 0.00 in0.0 mm 0.13 in3.3 mm
04:55 PM 54.6°F12.6°C 48.2°F9.0°C 79% Calm Calm 4.0 mph6.4 kmh 29.21 in989.2 mb 0.00 in0.0 mm 0.00 in0.0 mm 0.13 in3.3 mm
04:50 PM 54.9°F12.7°C 48.5°F9.2°C 79% Calm Calm 4.0 mph6.4 kmh 29.21 in989.2 mb 0.00 in0.0 mm 0.00 in0.0 mm 0.13 in3.3 mm
04:45 PM 55.1°F12.8°C 48.4°F9.1°C 78% Calm Calm 4.0 mph6.4 kmh 29.21 in989.2 mb 0.00 in0.0 mm 0.00 in0.0 mm 0.13 in3.3 mm
04:40 PM 55.1°F12.8°C 49.0°F9.4°C 80% Calm Calm 3.0 mph4.8 kmh 29.21 in989.2 mb 0.00 in0.0 mm 0.00 in0.0 mm 0.13 in3.3 mm
04:35 PM 55.1°F12.8°C 48.7°F9.3°C 79% Calm Calm 3.0 mph4.8 kmh 29.21 in989.2 mb 0.00 in0.0 mm 0.00 in0.0 mm 0.13 in3.3 mm
04:30 PM 55.1°F12.8°C 49.0°F9.4°C 80% Calm Calm 2.0 mph3.2 kmh 29.21 in989.2 mb 0.00 in0.0 mm 0.00 in0.0 mm 0.13 in3.3 mm
04:25 PM 55.2°F12.9°C 49.1°F9.5°C 80% Calm Calm 2.0 mph3.2 kmh 29.21 in989.2 mb 0.00 in0.0 mm 0.00 in0.0 mm 0.13 in3.3 mm
04:20 PM 55.2°F12.9°C 49.1°F9.5°C 80% Calm Calm 1.0 mph1.6 kmh 29.21 in989.2 mb 0.00 in0.0 mm 0.00 in0.0 mm 0.13 in3.3 mm
04:15 PM 55.3°F12.9°C 50.9°F10.5°C 85% Calm Calm -- 29.21 in989.2 mb 0.00 in0.0 mm 0.00 in0.0 mm 0.13 in3.3 mm
04:10 PM 55.2°F12.9°C 50.4°F10.2°C 84% Calm Calm -- 29.21 in989.2 mb 0.00 in0.0 mm 0.00 in0.0 mm 0.13 in3.3 mm
04:05 PM 55.3°F12.9°C 50.2°F10.1°C 83% Calm Calm -- 29.21 in989.2 mb 0.00 in0.0 mm 0.00 in0.0 mm 0.13 in3.3 mm
04:00 PM 55.2°F12.9°C 49.5°F9.7°C 81% Calm Calm -- 29.21 in989.2 mb 0.00 in0.0 mm 0.00 in0.0 mm 0.13 in3.3 mm
03:55 PM 55.3°F12.9°C 49.2°F9.6°C 80% Calm Calm 2.0 mph3.2 kmh 29.21 in989.2 mb 0.00 in0.0 mm 0.00 in0.0 mm 0.13 in3.3 mm
03:50 PM 55.3°F12.9°C 48.9°F9.4°C 79% Calm Calm 2.0 mph3.2 kmh 29.21 in989.2 mb 0.00 in0.0 mm 0.00 in0.0 mm 0.13 in3.3 mm
03:45 PM 55.4°F13.0°C 48.7°F9.3°C 78% Calm Calm 2.0 mph3.2 kmh 29.21 in989.2 mb 0.00 in0.0 mm 0.00 in0.0 mm 0.13 in3.3 mm
03:40 PM 55.5°F13.1°C 48.4°F9.1°C 77% Calm Calm 2.0 mph3.2 kmh 29.21 in989.2 mb 0.00 in0.0 mm 0.00 in0.0 mm 0.13 in3.3 mm
03:35 PM 55.8°F13.2°C 48.3°F9.1°C 76% 1.0 mph NW1.6 kmh NW 5.0 mph8.0 kmh 29.21 in989.2 mb 0.00 in0.0 mm 0.00 in0.0 mm 0.13 in3.3 mm
03:30 PM 56.1°F13.4°C 48.3°F9.1°C 75% 1.0 mph NW1.6 kmh NW 5.0 mph8.0 kmh 29.21 in989.2 mb 0.00 in0.0 mm 0.00 in0.0 mm 0.13 in3.3 mm
03:25 PM 56.3°F13.5°C 48.5°F9.2°C 75% 1.0 mph NW1.6 kmh NW 4.0 mph6.4 kmh 29.21 in989.2 mb 0.00 in0.0 mm 0.00 in0.0 mm 0.13 in3.3 mm
03:20 PM 56.3°F13.5°C 48.5°F9.2°C 75% 1.0 mph NW1.6 kmh NW 6.0 mph9.7 kmh 29.21 in989.2 mb 0.00 in0.0 mm 0.00 in0.0 mm 0.13 in3.3 mm
03:15 PM 56.3°F13.5°C 48.1°F8.9°C 74% 1.0 mph NW1.6 kmh NW 6.0 mph9.7 kmh 29.21 in989.2 mb 0.00 in0.0 mm 0.00 in0.0 mm 0.13 in3.3 mm
03:10 PM 56.2°F13.4°C 48.0°F8.9°C 74% Calm Calm 3.0 mph4.8 kmh 29.21 in989.2 mb 0.00 in0.0 mm 0.00 in0.0 mm 0.13 in3.3 mm
03:05 PM 55.9°F13.3°C 49.5°F9.7°C 79% Calm Calm 3.0 mph4.8 kmh 29.21 in989.2 mb 0.00 in0.0 mm 0.00 in0.0 mm 0.13 in3.3 mm
03:00 PM 55.8°F13.2°C 49.4°F9.7°C 79% Calm Calm 3.0 mph4.8 kmh 29.21 in989.2 mb 0.00 in0.0 mm 0.00 in0.0 mm 0.13 in3.3 mm
02:55 PM 55.7°F13.2°C 48.9°F9.4°C 78% Calm Calm 3.0 mph4.8 kmh 29.21 in989.2 mb 0.00 in0.0 mm 0.00 in0.0 mm 0.13 in3.3 mm
02:50 PM 55.9°F13.3°C 49.8°F9.9°C 80% Calm Calm 4.0 mph6.4 kmh 29.21 in989.2 mb 0.00 in0.0 mm 0.00 in0.0 mm 0.13 in3.3 mm
02:45 PM 56.0°F13.3°C 50.3°F10.2°C 81% Calm Calm 4.0 mph6.4 kmh 29.21 in989.2 mb 0.00 in0.0 mm 0.00 in0.0 mm 0.13 in3.3 mm
02:40 PM 56.4°F13.6°C 50.3°F10.2°C 80% Calm Calm 4.0 mph6.4 kmh 29.21 in989.2 mb 0.00 in0.0 mm 0.00 in0.0 mm 0.13 in3.3 mm
02:35 PM 56.7°F13.7°C 49.9°F9.9°C 78% 1.0 mph NW1.6 kmh NW 5.0 mph8.0 kmh 29.21 in989.2 mb 0.00 in0.0 mm 0.00 in0.0 mm 0.13 in3.3 mm
02:30 PM 57.1°F13.9°C 49.2°F9.6°C 75% 1.0 mph NW1.6 kmh NW 5.0 mph8.0 kmh 29.21 in989.2 mb 0.00 in0.0 mm 0.00 in0.0 mm 0.13 in3.3 mm
02:25 PM 57.4°F14.1°C 49.2°F9.6°C 74% 1.0 mph NW1.6 kmh NW 5.0 mph8.0 kmh 29.21 in989.2 mb 0.00 in0.0 mm 0.00 in0.0 mm 0.13 in3.3 mm
02:20 PM 57.6°F14.2°C 48.6°F9.2°C 72% 1.0 mph NW1.6 kmh NW 5.0 mph8.0 kmh 29.21 in989.2 mb 0.00 in0.0 mm 0.00 in0.0 mm 0.13 in3.3 mm
02:15 PM 57.6°F14.2°C 48.3°F9.1°C 71% 1.0 mph NW1.6 kmh NW 4.0 mph6.4 kmh 29.21 in989.2 mb 0.00 in0.0 mm 0.00 in0.0 mm 0.13 in3.3 mm
02:10 PM 57.6°F14.2°C 48.3°F9.1°C 71% 1.0 mph WNW1.6 kmh WNW 4.0 mph6.4 kmh 29.21 in989.2 mb 0.00 in0.0 mm 0.00 in0.0 mm 0.13 in3.3 mm
02:05 PM 57.5°F14.2°C 48.2°F9.0°C 71% Calm Calm 4.0 mph6.4 kmh 29.21 in989.2 mb 0.00 in0.0 mm 0.00 in0.0 mm 0.13 in3.3 mm
02:00 PM 57.4°F14.1°C 49.5°F9.7°C 75% 1.0 mph NW1.6 kmh NW 4.0 mph6.4 kmh 29.21 in989.2 mb 0.00 in0.0 mm 0.00 in0.0 mm 0.13 in3.3 mm
01:55 PM 57.4°F14.1°C 48.4°F9.1°C 72% 1.0 mph NW1.6 kmh NW 5.0 mph8.0 kmh 29.21 in989.2 mb 0.00 in0.0 mm 0.00 in0.0 mm 0.13 in3.3 mm
01:50 PM 57.5°F14.2°C 48.5°F9.2°C 72% 2.0 mph NW3.2 kmh NW 8.0 mph12.9 kmh 29.21 in989.2 mb 0.00 in0.0 mm 0.00 in0.0 mm 0.13 in3.3 mm
01:45 PM 57.7°F14.3°C 49.1°F9.5°C 73% 2.0 mph NW3.2 kmh NW 8.0 mph12.9 kmh 29.21 in989.2 mb 0.00 in0.0 mm 0.00 in0.0 mm 0.13 in3.3 mm
01:40 PM 57.9°F14.4°C 50.0°F10.0°C 75% 2.0 mph WNW3.2 kmh WNW 7.0 mph11.3 kmh 29.21 in989.2 mb 0.00 in0.0 mm 0.00 in0.0 mm 0.13 in3.3 mm
01:35 PM 58.0°F14.4°C 49.4°F9.7°C 73% 2.0 mph WNW3.2 kmh WNW 7.0 mph11.3 kmh 29.21 in989.2 mb 0.00 in0.0 mm 0.00 in0.0 mm 0.13 in3.3 mm
01:30 PM 58.0°F14.4°C 49.4°F9.7°C 73% 1.0 mph W1.6 kmh W 8.0 mph12.9 kmh 29.21 in989.2 mb 0.00 in0.0 mm 0.00 in0.0 mm 0.13 in3.3 mm
01:25 PM 58.1°F14.5°C 48.7°F9.3°C 71% 2.0 mph W3.2 kmh W 8.0 mph12.9 kmh 29.21 in989.2 mb 0.00 in0.0 mm 0.00 in0.0 mm 0.13 in3.3 mm
01:20 PM 58.2°F14.6°C 49.2°F9.6°C 72% 2.0 mph WNW3.2 kmh WNW 6.0 mph9.7 kmh 29.21 in989.2 mb 0.00 in0.0 mm 0.00 in0.0 mm 0.13 in3.3 mm
01:15 PM 58.1°F14.5°C 49.1°F9.5°C 72% 1.0 mph NW1.6 kmh NW 6.0 mph9.7 kmh 29.21 in989.2 mb 0.00 in0.0 mm 0.00 in0.0 mm 0.13 in3.3 mm
01:10 PM 57.8°F14.3°C 50.3°F10.2°C 76% 1.0 mph NW1.6 kmh NW 5.0 mph8.0 kmh 29.21 in989.2 mb 0.00 in0.0 mm 0.00 in0.0 mm 0.13 in3.3 mm
01:05 PM 57.5°F14.2°C 48.9°F9.4°C 73% 1.0 mph NW1.6 kmh NW 5.0 mph8.0 kmh 29.21 in989.2 mb 0.00 in0.0 mm 0.00 in0.0 mm 0.13 in3.3 mm
01:00 PM 57.3°F14.1°C 49.4°F9.7°C 75% 1.0 mph NW1.6 kmh NW 4.0 mph6.4 kmh 29.21 in989.2 mb 0.00 in0.0 mm 0.00 in0.0 mm 0.13 in3.3 mm
12:55 PM 56.9°F13.8°C 50.5°F10.3°C 79% 1.0 mph WNW1.6 kmh WNW 6.0 mph9.7 kmh 29.21 in989.2 mb 0.00 in0.0 mm 0.00 in0.0 mm 0.13 in3.3 mm
12:50 PM 56.7°F13.7°C 51.3°F10.7°C 82% 1.0 mph WNW1.6 kmh WNW 6.0 mph9.7 kmh 29.21 in989.2 mb 0.00 in0.0 mm 0.00 in0.0 mm 0.13 in3.3 mm
12:45 PM 56.4°F13.6°C 51.0°F10.6°C 82% 1.0 mph NW1.6 kmh NW 7.0 mph11.3 kmh 29.21 in989.2 mb 0.00 in0.0 mm 0.00 in0.0 mm 0.13 in3.3 mm
12:40 PM 56.2°F13.4°C 50.8°F10.4°C 82% 1.0 mph NW1.6 kmh NW 7.0 mph11.3 kmh 29.21 in989.2 mb 0.00 in0.0 mm 0.00 in0.0 mm 0.13 in3.3 mm
12:35 PM 56.0°F13.3°C 51.2°F10.7°C 84% Calm Calm 1.0 mph1.6 kmh 29.21 in989.2 mb 0.00 in0.0 mm 0.00 in0.0 mm 0.13 in3.3 mm
12:30 PM 55.9°F13.3°C 51.5°F10.8°C 85% Calm Calm 1.0 mph1.6 kmh 29.21 in989.2 mb 0.00 in0.0 mm 0.00 in0.0 mm 0.13 in3.3 mm
12:25 PM 55.9°F13.3°C 51.5°F10.8°C 85% Calm Calm 1.0 mph1.6 kmh 29.21 in989.2 mb 0.00 in0.0 mm 0.00 in0.0 mm 0.13 in3.3 mm
12:20 PM 55.9°F13.3°C 51.1°F10.6°C 84% Calm Calm 3.0 mph4.8 kmh 29.21 in989.2 mb 0.00 in0.0 mm 0.00 in0.0 mm 0.13 in3.3 mm
12:15 PM 56.2°F13.4°C 51.4°F10.8°C 84% 1.0 mph NW1.6 kmh NW 8.0 mph12.9 kmh 29.21 in989.2 mb 0.00 in0.0 mm 0.00 in0.0 mm 0.13 in3.3 mm
12:10 PM 56.6°F13.7°C 50.5°F10.3°C 80% 1.0 mph NW1.6 kmh NW 8.0 mph12.9 kmh 29.21 in989.2 mb 0.00 in0.0 mm 0.00 in0.0 mm 0.13 in3.3 mm
12:05 PM 57.1°F13.9°C 51.3°F10.7°C 81% 1.0 mph WNW1.6 kmh WNW 3.0 mph4.8 kmh 29.21 in989.2 mb 0.00 in0.0 mm 0.00 in0.0 mm 0.13 in3.3 mm
12:00 PM 57.5°F14.2°C 51.7°F10.9°C 81% 1.0 mph WSW1.6 kmh WSW 5.0 mph8.0 kmh 29.21 in989.2 mb 0.00 in0.0 mm 0.00 in0.0 mm 0.13 in3.3 mm
11:55 AM 57.8°F14.3°C 52.0°F11.1°C 81% 1.0 mph SW1.6 kmh SW 5.0 mph8.0 kmh 29.21 in989.2 mb 0.00 in0.0 mm 0.00 in0.0 mm 0.13 in3.3 mm
11:50 AM 58.0°F14.4°C 51.9°F11.1°C 80% 1.0 mph WSW1.6 kmh WSW 5.0 mph8.0 kmh 29.21 in989.2 mb 0.00 in0.0 mm 0.00 in0.0 mm 0.13 in3.3 mm
11:45 AM 57.8°F14.3°C 51.3°F10.7°C 79% Calm Calm 4.0 mph6.4 kmh 29.21 in989.2 mb 0.00 in0.0 mm 0.00 in0.0 mm 0.13 in3.3 mm
11:40 AM 57.1°F13.9°C 51.7°F10.9°C 82% 1.0 mph SW1.6 kmh SW 7.0 mph11.3 kmh 29.21 in989.2 mb 0.00 in0.0 mm 0.00 in0.0 mm 0.13 in3.3 mm
11:35 AM 57.1°F13.9°C 50.6°F10.3°C 79% 2.0 mph SW3.2 kmh SW 7.0 mph11.3 kmh 29.21 in989.2 mb 0.00 in0.0 mm 0.00 in0.0 mm 0.13 in3.3 mm
11:30 AM 57.5°F14.2°C 51.7°F10.9°C 81% 2.0 mph SW3.2 kmh SW 6.0 mph9.7 kmh 29.21 in989.2 mb 0.00 in0.0 mm 0.00 in0.0 mm 0.13 in3.3 mm
11:25 AM 57.9°F14.4°C 51.4°F10.8°C 79% 1.0 mph SW1.6 kmh SW 6.0 mph9.7 kmh 29.21 in989.2 mb 0.00 in0.0 mm 0.00 in0.0 mm 0.13 in3.3 mm
11:20 AM 57.3°F14.1°C 51.9°F11.1°C 82% 1.0 mph SW1.6 kmh SW 5.0 mph8.0 kmh 29.21 in989.2 mb 0.00 in0.0 mm 0.00 in0.0 mm 0.13 in3.3 mm
11:15 AM 56.7°F13.7°C 51.9°F11.1°C 84% Calm Calm 4.0 mph6.4 kmh 29.21 in989.2 mb 0.00 in0.0 mm 0.00 in0.0 mm 0.13 in3.3 mm
11:10 AM 56.3°F13.5°C 52.2°F11.2°C 86% 1.0 mph SSW1.6 kmh SSW 5.0 mph8.0 kmh 29.21 in989.2 mb 0.00 in0.0 mm 0.00 in0.0 mm 0.13 in3.3 mm
11:05 AM 56.0°F13.3°C 51.6°F10.9°C 85% 2.0 mph SW3.2 kmh SW 5.0 mph8.0 kmh 29.21 in989.2 mb 0.00 in0.0 mm 0.00 in0.0 mm 0.13 in3.3 mm
11:00 AM 56.1°F13.4°C 51.7°F10.9°C 85% 1.0 mph W1.6 kmh W 6.0 mph9.7 kmh 29.21 in989.2 mb 0.00 in0.0 mm 0.00 in0.0 mm 0.13 in3.3 mm
10:55 AM 56.2°F13.4°C 51.1°F10.6°C 83% 1.0 mph W1.6 kmh W 6.0 mph9.7 kmh 29.21 in989.2 mb 0.00 in0.0 mm 0.00 in0.0 mm 0.13 in3.3 mm
10:50 AM 56.0°F13.3°C 51.6°F10.9°C 85% 1.0 mph WSW1.6 kmh WSW 4.0 mph6.4 kmh 29.21 in989.2 mb 0.00 in0.0 mm 0.00 in0.0 mm 0.13 in3.3 mm
10:45 AM 55.7°F13.2°C 50.9°F10.5°C 84% 1.0 mph WSW1.6 kmh WSW 4.0 mph6.4 kmh 29.21 in989.2 mb 0.00 in0.0 mm 0.00 in0.0 mm 0.13 in3.3 mm
10:40 AM 55.5°F13.1°C 51.4°F10.8°C 86% 2.0 mph SW3.2 kmh SW 4.0 mph6.4 kmh 29.21 in989.2 mb 0.00 in0.0 mm 0.00 in0.0 mm 0.13 in3.3 mm
10:35 AM 55.3°F12.9°C 50.9°F10.5°C 85% 3.0 mph SW4.8 kmh SW 9.0 mph14.5 kmh 29.21 in989.2 mb 0.00 in0.0 mm 0.00 in0.0 mm 0.13 in3.3 mm
10:30 AM 55.3°F12.9°C 50.9°F10.5°C 85% 2.0 mph WSW3.2 kmh WSW 9.0 mph14.5 kmh 29.21 in989.2 mb 0.00 in0.0 mm 0.00 in0.0 mm 0.13 in3.3 mm
10:25 AM 55.2°F12.9°C 51.4°F10.8°C 87% 1.0 mph W1.6 kmh W 4.0 mph6.4 kmh 29.21 in989.2 mb 0.00 in0.0 mm 0.00 in0.0 mm 0.13 in3.3 mm
10:20 AM 54.8°F12.7°C 51.0°F10.6°C 87% 1.0 mph WSW1.6 kmh WSW 4.0 mph6.4 kmh 29.21 in989.2 mb 0.00 in0.0 mm 0.00 in0.0 mm 0.13 in3.3 mm
10:15 AM 54.5°F12.5°C 51.0°F10.6°C 88% 1.0 mph WSW1.6 kmh WSW 3.0 mph4.8 kmh 29.21 in989.2 mb 0.00 in0.0 mm 0.00 in0.0 mm 0.13 in3.3 mm
10:10 AM 54.5°F12.5°C 51.0°F10.6°C 88% 1.0 mph SW1.6 kmh SW 4.0 mph6.4 kmh 29.21 in989.2 mb 0.00 in0.0 mm 0.00 in0.0 mm 0.13 in3.3 mm
10:05 AM 54.4°F12.4°C 50.9°F10.5°C 88% 1.0 mph SW1.6 kmh SW 4.0 mph6.4 kmh 29.21 in989.2 mb 0.00 in0.0 mm 0.00 in0.0 mm 0.13 in3.3 mm
10:00 AM 54.3°F12.4°C 50.5°F10.3°C 87% 1.0 mph WSW1.6 kmh WSW 4.0 mph6.4 kmh 29.21 in989.2 mb 0.00 in0.0 mm 0.00 in0.0 mm 0.13 in3.3 mm
09:55 AM 54.2°F12.3°C 50.4°F10.2°C 87% 1.0 mph WSW1.6 kmh WSW 4.0 mph6.4 kmh 29.21 in989.2 mb 0.00 in0.0 mm 0.00 in0.0 mm 0.13 in3.3 mm
09:50 AM 54.1°F12.3°C 50.3°F10.2°C 87% Calm Calm 4.0 mph6.4 kmh 29.21 in989.2 mb 0.00 in0.0 mm 0.00 in0.0 mm 0.13 in3.3 mm
09:45 AM 54.0°F12.2°C 50.5°F10.3°C 88% Calm Calm 3.0 mph4.8 kmh 29.21 in989.2 mb 0.00 in0.0 mm 0.00 in0.0 mm 0.13 in3.3 mm
09:40 AM 53.9°F12.2°C 50.7°F10.4°C 89% Calm Calm 4.0 mph6.4 kmh 29.21 in989.2 mb 0.00 in0.0 mm 0.00 in0.0 mm 0.13 in3.3 mm
09:35 AM 53.8°F12.1°C 50.6°F10.3°C 89% Calm Calm 4.0 mph6.4 kmh 29.21 in989.2 mb 0.00 in0.0 mm 0.00 in0.0 mm 0.13 in3.3 mm
09:30 AM 53.7°F12.1°C 50.5°F10.3°C 89% Calm Calm 3.0 mph4.8 kmh 29.21 in989.2 mb 0.00 in0.0 mm 0.00 in0.0 mm 0.13 in3.3 mm
09:25 AM 53.6°F12.0°C 50.7°F10.4°C 90% Calm Calm 3.0 mph4.8 kmh 29.21 in989.2 mb 0.00 in0.0 mm 0.00 in0.0 mm 0.13 in3.3 mm
09:20 AM 53.5°F11.9°C 50.9°F10.5°C 91% Calm Calm -- 29.21 in989.2 mb 0.00 in0.0 mm 0.00 in0.0 mm 0.13 in3.3 mm
09:15 AM 53.3°F11.8°C 51.0°F10.6°C 92% Calm Calm 3.0 mph4.8 kmh 29.21 in989.2 mb 0.01 in0.3 mm 0.00 in0.0 mm 0.13 in3.3 mm
09:10 AM 53.2°F11.8°C 50.0°F10.0°C 89% 1.0 mph WSW1.6 kmh WSW 3.0 mph4.8 kmh 29.21 in989.2 mb 0.01 in0.3 mm 0.00 in0.0 mm 0.13 in3.3 mm
09:05 AM 53.1°F11.7°C 50.2°F10.1°C 90% Calm Calm 4.0 mph6.4 kmh 29.21 in989.2 mb 0.01 in0.3 mm 0.00 in0.0 mm 0.13 in3.3 mm
09:00 AM 53.0°F11.7°C 50.1°F10.1°C 90% Calm Calm 4.0 mph6.4 kmh 29.21 in989.2 mb 0.01 in0.3 mm 0.00 in0.0 mm 0.13 in3.3 mm
08:55 AM 52.8°F11.6°C 50.5°F10.3°C 92% Calm Calm 2.0 mph3.2 kmh 29.21 in989.2 mb 0.01 in0.3 mm 0.00 in0.0 mm 0.13 in3.3 mm
08:50 AM 52.8°F11.6°C 50.2°F10.1°C 91% Calm Calm 3.0 mph4.8 kmh 29.21 in989.2 mb 0.01 in0.3 mm 0.00 in0.0 mm 0.13 in3.3 mm
08:45 AM 52.8°F11.6°C 50.2°F10.1°C 91% Calm Calm 3.0 mph4.8 kmh 29.21 in989.2 mb 0.01 in0.3 mm 0.00 in0.0 mm 0.13 in3.3 mm
08:40 AM 53.0°F11.7°C 50.4°F10.2°C 91% Calm Calm 2.0 mph3.2 kmh 29.21 in989.2 mb 0.01 in0.3 mm 0.00 in0.0 mm 0.13 in3.3 mm
08:35 AM 53.0°F11.7°C 50.4°F10.2°C 91% Calm Calm 3.0 mph4.8 kmh 29.21 in989.2 mb 0.01 in0.3 mm 0.00 in0.0 mm 0.13 in3.3 mm
08:30 AM 52.6°F11.4°C 50.3°F10.2°C 92% Calm Calm 3.0 mph4.8 kmh 29.21 in989.2 mb 0.01 in0.3 mm 0.00 in0.0 mm 0.13 in3.3 mm
08:25 AM 52.3°F11.3°C 50.3°F10.2°C 93% Calm Calm 2.0 mph3.2 kmh 29.21 in989.2 mb 0.01 in0.3 mm 0.00 in0.0 mm 0.13 in3.3 mm
08:20 AM 52.0°F11.1°C 50.3°F10.2°C 94% Calm Calm 2.0 mph3.2 kmh 29.21 in989.2 mb 0.01 in0.3 mm 0.12 in3.0 mm 0.13 in3.3 mm
08:15 AM 51.7°F10.9°C 50.3°F10.2°C 95% Calm Calm -- 29.21 in989.2 mb 0.00 in0.0 mm 0.00 in0.0 mm 0.13 in3.3 mm
08:10 AM 51.3°F10.7°C 49.9°F9.9°C 95% Calm Calm 1.0 mph1.6 kmh 29.21 in989.2 mb 0.00 in0.0 mm 0.00 in0.0 mm 0.13 in3.3 mm
08:05 AM 51.0°F10.6°C 49.9°F9.9°C 96% Calm Calm 1.0 mph1.6 kmh 29.21 in989.2 mb 0.00 in0.0 mm 0.00 in0.0 mm 0.13 in3.3 mm
08:00 AM 50.6°F10.3°C 49.5°F9.7°C 96% Calm Calm 2.0 mph3.2 kmh 29.21 in989.2 mb 0.00 in0.0 mm 0.00 in0.0 mm 0.13 in3.3 mm
07:55 AM 50.3°F10.2°C 49.5°F9.7°C 97% Calm Calm 2.0 mph3.2 kmh 29.21 in989.2 mb 0.00 in0.0 mm 0.00 in0.0 mm 0.13 in3.3 mm
07:50 AM 50.0°F10.0°C 49.2°F9.6°C 97% Calm Calm 2.0 mph3.2 kmh 29.21 in989.2 mb 0.00 in0.0 mm 0.00 in0.0 mm 0.13 in3.3 mm
07:45 AM 49.7°F9.8°C 48.6°F9.2°C 96% Calm Calm 2.0 mph3.2 kmh 29.21 in989.2 mb 0.00 in0.0 mm 0.00 in0.0 mm 0.13 in3.3 mm
07:40 AM 49.4°F9.7°C 48.6°F9.2°C 97% Calm Calm 3.0 mph4.8 kmh 29.21 in989.2 mb 0.00 in0.0 mm 0.00 in0.0 mm 0.13 in3.3 mm
07:35 AM 49.2°F9.6°C 48.1°F8.9°C 96% Calm Calm 3.0 mph4.8 kmh 29.21 in989.2 mb 0.00 in0.0 mm 0.00 in0.0 mm 0.13 in3.3 mm
07:30 AM 49.0°F9.4°C 47.9°F8.8°C 96% Calm Calm -- 29.21 in989.2 mb 0.00 in0.0 mm 0.00 in0.0 mm 0.13 in3.3 mm
07:25 AM 48.8°F9.3°C 47.7°F8.7°C 96% Calm Calm -- 29.21 in989.2 mb 0.00 in0.0 mm 0.00 in0.0 mm 0.13 in3.3 mm
07:20 AM 48.8°F9.3°C 47.4°F8.6°C 95% Calm Calm -- 29.21 in989.2 mb 0.00 in0.0 mm 0.00 in0.0 mm 0.13 in3.3 mm
07:15 AM 48.9°F9.4°C 47.2°F8.4°C 94% Calm Calm -- 29.21 in989.2 mb 0.00 in0.0 mm 0.00 in0.0 mm 0.13 in3.3 mm
07:10 AM 49.3°F9.6°C 47.6°F8.7°C 94% Calm Calm -- 29.21 in989.2 mb 0.00 in0.0 mm 0.00 in0.0 mm 0.13 in3.3 mm
07:05 AM 49.6°F9.8°C 47.9°F8.8°C 94% Calm Calm -- 29.21 in989.2 mb 0.00 in0.0 mm 0.00 in0.0 mm 0.13 in3.3 mm
07:00 AM 49.9°F9.9°C 48.2°F9.0°C 94% Calm Calm -- 29.21 in989.2 mb 0.00 in0.0 mm 0.00 in0.0 mm 0.13 in3.3 mm
06:55 AM 50.0°F10.0°C 48.3°F9.1°C 94% Calm Calm -- 29.21 in989.2 mb 0.00 in0.0 mm 0.00 in0.0 mm 0.13 in3.3 mm
06:50 AM 50.1°F10.1°C 48.4°F9.1°C 94% Calm Calm -- 29.21 in989.2 mb 0.00 in0.0 mm 0.00 in0.0 mm 0.13 in3.3 mm
06:45 AM 50.2°F10.1°C 48.5°F9.2°C 94% Calm Calm -- 29.21 in989.2 mb 0.00 in0.0 mm 0.00 in0.0 mm 0.13 in3.3 mm
06:40 AM 50.3°F10.2°C 48.6°F9.2°C 94% Calm Calm 1.0 mph1.6 kmh 29.21 in989.2 mb 0.00 in0.0 mm 0.00 in0.0 mm 0.13 in3.3 mm
06:35 AM 50.3°F10.2°C 48.1°F8.9°C 92% Calm Calm 2.0 mph3.2 kmh 29.21 in989.2 mb 0.00 in0.0 mm 0.00 in0.0 mm 0.13 in3.3 mm
06:30 AM 50.2°F10.1°C 48.0°F8.9°C 92% Calm Calm 3.0 mph4.8 kmh 29.21 in989.2 mb 0.00 in0.0 mm 0.00 in0.0 mm 0.13 in3.3 mm
06:25 AM 50.1°F10.1°C 47.6°F8.7°C 91% Calm Calm 4.0 mph6.4 kmh 29.21 in989.2 mb 0.00 in0.0 mm 0.00 in0.0 mm 0.13 in3.3 mm
06:20 AM 49.9°F9.9°C 47.7°F8.7°C 92% 1.0 mph WNW1.6 kmh WNW 4.0 mph6.4 kmh 29.21 in989.2 mb 0.00 in0.0 mm 0.00 in0.0 mm 0.13 in3.3 mm
06:15 AM 49.8°F9.9°C 48.1°F8.9°C 94% Calm Calm 3.0 mph4.8 kmh 29.21 in989.2 mb 0.00 in0.0 mm 0.00 in0.0 mm 0.13 in3.3 mm
06:10 AM 49.7°F9.8°C 48.0°F8.9°C 94% Calm Calm 2.0 mph3.2 kmh 29.21 in989.2 mb 0.00 in0.0 mm 0.00 in0.0 mm 0.13 in3.3 mm
06:05 AM 49.7°F9.8°C 48.0°F8.9°C 94% Calm Calm -- 29.21 in989.2 mb 0.00 in0.0 mm 0.00 in0.0 mm 0.13 in3.3 mm
06:00 AM 49.6°F9.8°C 47.9°F8.8°C 94% Calm Calm 1.0 mph1.6 kmh 29.21 in989.2 mb 0.00 in0.0 mm 0.00 in0.0 mm 0.13 in3.3 mm
05:55 AM 49.7°F9.8°C 48.0°F8.9°C 94% Calm Calm 1.0 mph1.6 kmh 29.21 in989.2 mb 0.00 in0.0 mm 0.00 in0.0 mm 0.13 in3.3 mm
05:50 AM 49.7°F9.8°C 47.8°F8.8°C 93% Calm Calm 2.0 mph3.2 kmh 29.21 in989.2 mb 0.00 in0.0 mm 0.00 in0.0 mm 0.13 in3.3 mm
05:45 AM 49.9°F9.9°C 47.7°F8.7°C 92% Calm Calm 2.0 mph3.2 kmh 29.21 in989.2 mb 0.00 in0.0 mm 0.00 in0.0 mm 0.13 in3.3 mm
05:40 AM 50.2°F10.1°C 47.7°F8.7°C 91% Calm Calm 3.0 mph4.8 kmh 29.21 in989.2 mb 0.00 in0.0 mm 0.00 in0.0 mm 0.13 in3.3 mm
05:35 AM 50.4°F10.2°C 47.9°F8.8°C 91% 1.0 mph NW1.6 kmh NW 5.0 mph8.0 kmh 29.21 in989.2 mb 0.00 in0.0 mm 0.00 in0.0 mm 0.13 in3.3 mm
05:30 AM 50.6°F10.3°C 47.8°F8.8°C 90% 1.0 mph NW1.6 kmh NW 5.0 mph8.0 kmh 29.21 in989.2 mb 0.00 in0.0 mm 0.00 in0.0 mm 0.13 in3.3 mm
05:25 AM 50.8°F10.4°C 48.0°F8.9°C 90% 1.0 mph NW1.6 kmh NW 7.0 mph11.3 kmh 29.21 in989.2 mb 0.00 in0.0 mm 0.00 in0.0 mm 0.13 in3.3 mm
05:20 AM 51.0°F10.6°C 48.2°F9.0°C 90% 1.0 mph WNW1.6 kmh WNW 7.0 mph11.3 kmh 29.21 in989.2 mb 0.00 in0.0 mm 0.00 in0.0 mm 0.13 in3.3 mm
05:15 AM 51.3°F10.7°C 48.8°F9.3°C 91% Calm Calm 3.0 mph4.8 kmh 29.21 in989.2 mb 0.00 in0.0 mm 0.00 in0.0 mm 0.13 in3.3 mm
05:10 AM 51.7°F10.9°C 49.2°F9.6°C 91% Calm Calm 4.0 mph6.4 kmh 29.21 in989.2 mb 0.00 in0.0 mm 0.00 in0.0 mm 0.13 in3.3 mm
05:05 AM 52.0°F11.1°C 49.5°F9.7°C 91% 1.0 mph WNW1.6 kmh WNW 5.0 mph8.0 kmh 29.21 in989.2 mb 0.00 in0.0 mm 0.00 in0.0 mm 0.13 in3.3 mm
05:00 AM 52.3°F11.3°C 50.0°F10.0°C 92% 1.0 mph WNW1.6 kmh WNW 6.0 mph9.7 kmh 29.21 in989.2 mb 0.00 in0.0 mm 0.00 in0.0 mm 0.13 in3.3 mm
04:55 AM 52.4°F11.3°C 50.1°F10.1°C 92% 1.0 mph NW1.6 kmh NW 6.0 mph9.7 kmh 29.21 in989.2 mb 0.00 in0.0 mm 0.00 in0.0 mm 0.13 in3.3 mm
04:50 AM 52.5°F11.4°C 50.5°F10.3°C 93% Calm Calm 5.0 mph8.0 kmh 29.21 in989.2 mb 0.00 in0.0 mm 0.00 in0.0 mm 0.13 in3.3 mm
04:45 AM 52.6°F11.4°C 50.6°F10.3°C 93% Calm Calm 5.0 mph8.0 kmh 29.21 in989.2 mb 0.00 in0.0 mm 0.00 in0.0 mm 0.13 in3.3 mm
04:40 AM 52.7°F11.5°C 50.7°F10.4°C 93% 1.0 mph WNW1.6 kmh WNW 3.0 mph4.8 kmh 29.21 in989.2 mb 0.00 in0.0 mm 0.00 in0.0 mm 0.13 in3.3 mm
04:35 AM 52.8°F11.6°C 50.8°F10.4°C 93% 1.0 mph NW1.6 kmh NW 4.0 mph6.4 kmh 29.21 in989.2 mb 0.00 in0.0 mm 0.00 in0.0 mm 0.13 in3.3 mm
04:30 AM 52.9°F11.6°C 51.2°F10.7°C 94% 1.0 mph NW1.6 kmh NW 6.0 mph9.7 kmh 29.21 in989.2 mb 0.00 in0.0 mm 0.00 in0.0 mm 0.13 in3.3 mm
04:25 AM 53.0°F11.7°C 51.0°F10.6°C 93% 1.0 mph NW1.6 kmh NW 7.0 mph11.3 kmh 29.21 in989.2 mb 0.00 in0.0 mm 0.00 in0.0 mm 0.13 in3.3 mm
04:20 AM 53.1°F11.7°C 51.1°F10.6°C 93% 1.0 mph NW1.6 kmh NW 8.0 mph12.9 kmh 29.21 in989.2 mb 0.00 in0.0 mm 0.00 in0.0 mm 0.13 in3.3 mm
04:15 AM 53.2°F11.8°C 51.2°F10.7°C 93% 2.0 mph NW3.2 kmh NW 8.0 mph12.9 kmh 29.21 in989.2 mb 0.00 in0.0 mm 0.00 in0.0 mm 0.13 in3.3 mm
04:10 AM 53.3°F11.8°C 51.3°F10.7°C 93% 2.0 mph NW3.2 kmh NW 8.0 mph12.9 kmh 29.21 in989.2 mb 0.00 in0.0 mm 0.00 in0.0 mm 0.13 in3.3 mm
04:05 AM 53.5°F11.9°C 51.5°F10.8°C 93% 3.0 mph NW4.8 kmh NW 8.0 mph12.9 kmh 29.21 in989.2 mb 0.00 in0.0 mm 0.00 in0.0 mm 0.13 in3.3 mm
04:00 AM 53.7°F12.1°C 52.0°F11.1°C 94% 2.0 mph NW3.2 kmh NW 8.0 mph12.9 kmh 29.21 in989.2 mb 0.00 in0.0 mm 0.00 in0.0 mm 0.13 in3.3 mm
03:55 AM 53.9°F12.2°C 52.2°F11.2°C 94% 2.0 mph NW3.2 kmh NW 8.0 mph12.9 kmh 29.21 in989.2 mb 0.00 in0.0 mm 0.00 in0.0 mm 0.13 in3.3 mm
03:50 AM 54.1°F12.3°C 52.7°F11.5°C 95% 2.0 mph NW3.2 kmh NW 8.0 mph12.9 kmh 29.21 in989.2 mb 0.00 in0.0 mm 0.00 in0.0 mm 0.13 in3.3 mm
03:45 AM 54.2°F12.3°C 52.8°F11.6°C 95% 1.0 mph NW1.6 kmh NW 7.0 mph11.3 kmh 29.21 in989.2 mb 0.00 in0.0 mm 0.00 in0.0 mm 0.13 in3.3 mm
03:40 AM 54.3°F12.4°C 53.2°F11.8°C 96% 1.0 mph WNW1.6 kmh WNW 6.0 mph9.7 kmh 29.21 in989.2 mb 0.00 in0.0 mm 0.00 in0.0 mm 0.13 in3.3 mm
03:35 AM 54.4°F12.4°C 53.3°F11.8°C 96% 1.0 mph WNW1.6 kmh WNW 6.0 mph9.7 kmh 29.21 in989.2 mb 0.00 in0.0 mm 0.00 in0.0 mm 0.13 in3.3 mm
03:30 AM 54.4°F12.4°C 53.0°F11.7°C 95% Calm Calm 3.0 mph4.8 kmh 29.21 in989.2 mb 0.00 in0.0 mm 0.00 in0.0 mm 0.13 in3.3 mm
03:25 AM 54.5°F12.5°C 53.1°F11.7°C 95% 1.0 mph WNW1.6 kmh WNW 5.0 mph8.0 kmh 29.21 in989.2 mb 0.00 in0.0 mm 0.00 in0.0 mm 0.13 in3.3 mm
03:20 AM 54.6°F12.6°C 53.2°F11.8°C 95% 1.0 mph NW1.6 kmh NW 5.0 mph8.0 kmh 29.21 in989.2 mb 0.00 in0.0 mm 0.00 in0.0 mm 0.13 in3.3 mm
03:15 AM 54.6°F12.6°C 53.2°F11.8°C 95% 1.0 mph NW1.6 kmh NW 5.0 mph8.0 kmh 29.21 in989.2 mb 0.00 in0.0 mm 0.00 in0.0 mm 0.13 in3.3 mm
03:10 AM 54.8°F12.7°C 53.4°F11.9°C 95% 2.0 mph WNW3.2 kmh WNW 11.0 mph17.7 kmh 29.21 in989.2 mb 0.00 in0.0 mm 0.00 in0.0 mm 0.13 in3.3 mm
03:05 AM 54.9°F12.7°C 53.5°F11.9°C 95% 2.0 mph WNW3.2 kmh WNW 11.0 mph17.7 kmh 29.21 in989.2 mb 0.00 in0.0 mm 0.00 in0.0 mm 0.13 in3.3 mm
03:00 AM 55.1°F12.8°C 53.7°F12.1°C 95% 3.0 mph NW4.8 kmh NW 8.0 mph12.9 kmh 29.21 in989.2 mb 0.00 in0.0 mm 0.00 in0.0 mm 0.13 in3.3 mm
02:55 AM 55.3°F12.9°C 53.6°F12.0°C 94% 3.0 mph NW4.8 kmh NW 10.0 mph16.1 kmh 29.21 in989.2 mb 0.00 in0.0 mm 0.00 in0.0 mm 0.13 in3.3 mm
02:50 AM 55.6°F13.1°C 53.9°F12.2°C 94% 3.0 mph NW4.8 kmh NW 10.0 mph16.1 kmh 29.21 in989.2 mb 0.00 in0.0 mm 0.00 in0.0 mm 0.13 in3.3 mm
02:45 AM 55.8°F13.2°C 54.1°F12.3°C 94% 4.0 mph WNW6.4 kmh WNW 11.0 mph17.7 kmh 29.21 in989.2 mb 0.00 in0.0 mm 0.00 in0.0 mm 0.13 in3.3 mm
02:40 AM 56.0°F13.3°C 54.6°F12.6°C 95% 3.0 mph WNW4.8 kmh WNW 12.0 mph19.3 kmh 29.21 in989.2 mb 0.00 in0.0 mm 0.00 in0.0 mm 0.13 in3.3 mm
02:35 AM 56.3°F13.5°C 55.2°F12.9°C 96% 2.0 mph NW3.2 kmh NW 12.0 mph19.3 kmh 29.21 in989.2 mb 0.00 in0.0 mm 0.00 in0.0 mm 0.13 in3.3 mm
02:30 AM 56.4°F13.6°C 55.0°F12.8°C 95% 2.0 mph WNW3.2 kmh WNW 10.0 mph16.1 kmh 29.21 in989.2 mb 0.00 in0.0 mm 0.00 in0.0 mm 0.13 in3.3 mm
02:25 AM 56.6°F13.7°C 55.2°F12.9°C 95% 3.0 mph WNW4.8 kmh WNW 10.0 mph16.1 kmh 29.21 in989.2 mb 0.00 in0.0 mm 0.00 in0.0 mm 0.13 in3.3 mm
02:20 AM 56.8°F13.8°C 55.4°F13.0°C 95% 3.0 mph NW4.8 kmh NW 12.0 mph19.3 kmh 29.21 in989.2 mb 0.00 in0.0 mm 0.00 in0.0 mm 0.13 in3.3 mm
02:15 AM 57.0°F13.9°C 55.6°F13.1°C 95% 4.0 mph NW6.4 kmh NW 12.0 mph19.3 kmh 29.21 in989.2 mb 0.00 in0.0 mm 0.00 in0.0 mm 0.13 in3.3 mm
02:10 AM 57.4°F14.1°C 56.0°F13.3°C 95% 3.0 mph NW4.8 kmh NW 11.0 mph17.7 kmh 29.21 in989.2 mb 0.01 in0.3 mm 0.00 in0.0 mm 0.13 in3.3 mm
02:05 AM 57.6°F14.2°C 56.2°F13.4°C 95% 3.0 mph NW4.8 kmh NW 10.0 mph16.1 kmh 29.21 in989.2 mb 0.01 in0.3 mm 0.00 in0.0 mm 0.13 in3.3 mm
02:00 AM 57.9°F14.4°C 56.8°F13.8°C 96% 3.0 mph NW4.8 kmh NW 10.0 mph16.1 kmh 29.21 in989.2 mb 0.01 in0.3 mm 0.00 in0.0 mm 0.13 in3.3 mm
01:55 AM 58.1°F14.5°C 57.0°F13.9°C 96% 4.0 mph NW6.4 kmh NW 10.0 mph16.1 kmh 29.21 in989.2 mb 0.01 in0.3 mm 0.00 in0.0 mm 0.13 in3.3 mm
01:50 AM 58.4°F14.7°C 57.6°F14.2°C 97% 4.0 mph NW6.4 kmh NW 11.0 mph17.7 kmh 29.21 in989.2 mb 0.01 in0.3 mm 0.00 in0.0 mm 0.13 in3.3 mm
01:45 AM 58.5°F14.7°C 57.7°F14.3°C 97% 2.0 mph WNW3.2 kmh WNW 11.0 mph17.7 kmh 29.21 in989.2 mb 0.01 in0.3 mm 0.00 in0.0 mm 0.13 in3.3 mm
01:40 AM 58.7°F14.8°C 58.1°F14.5°C 98% 1.0 mph W1.6 kmh W 4.0 mph6.4 kmh 29.21 in989.2 mb 0.01 in0.3 mm 0.00 in0.0 mm 0.13 in3.3 mm
01:35 AM 58.7°F14.8°C 58.1°F14.5°C 98% 1.0 mph SW1.6 kmh SW 5.0 mph8.0 kmh 29.21 in989.2 mb 0.02 in0.5 mm 0.00 in0.0 mm 0.13 in3.3 mm
01:30 AM 58.7°F14.8°C 58.1°F14.5°C 98% 2.0 mph SW3.2 kmh SW 8.0 mph12.9 kmh 29.21 in989.2 mb 0.02 in0.5 mm 0.00 in0.0 mm 0.13 in3.3 mm
01:25 AM 58.7°F14.8°C 58.1°F14.5°C 98% 2.0 mph SW3.2 kmh SW 8.0 mph12.9 kmh 29.21 in989.2 mb 0.02 in0.5 mm 0.00 in0.0 mm 0.13 in3.3 mm
01:20 AM 58.7°F14.8°C 58.1°F14.5°C 98% 2.0 mph SW3.2 kmh SW 11.0 mph17.7 kmh 29.21 in989.2 mb 0.02 in0.5 mm 0.00 in0.0 mm 0.13 in3.3 mm
01:15 AM 58.8°F14.9°C 58.2°F14.6°C 98% 3.0 mph SW4.8 kmh SW 11.0 mph17.7 kmh 29.21 in989.2 mb 0.02 in0.5 mm 0.00 in0.0 mm 0.13 in3.3 mm
01:10 AM 58.7°F14.8°C 58.1°F14.5°C 98% 3.0 mph SW4.8 kmh SW 9.0 mph14.5 kmh 29.21 in989.2 mb 0.02 in0.5 mm 0.00 in0.0 mm 0.12 in3.0 mm
01:05 AM 58.7°F14.8°C 58.1°F14.5°C 98% 2.0 mph SW3.2 kmh SW 8.0 mph12.9 kmh 29.21 in989.2 mb 0.02 in0.5 mm 0.00 in0.0 mm 0.12 in3.0 mm
01:00 AM 58.7°F14.8°C 58.1°F14.5°C 98% 2.0 mph SW3.2 kmh SW 9.0 mph14.5 kmh 29.21 in989.2 mb 0.03 in0.8 mm 0.00 in0.0 mm 0.12 in3.0 mm
12:55 AM 58.6°F14.8°C 58.0°F14.4°C 98% 3.0 mph SW4.8 kmh SW 11.0 mph17.7 kmh 29.21 in989.2 mb 0.03 in0.8 mm 0.00 in0.0 mm 0.12 in3.0 mm
12:50 AM 58.6°F14.8°C 58.0°F14.4°C 98% 3.0 mph SW4.8 kmh SW 13.0 mph20.9 kmh 29.21 in989.2 mb 0.05 in1.3 mm 0.00 in0.0 mm 0.12 in3.0 mm
12:45 AM 58.5°F14.7°C 57.9°F14.4°C 98% 3.0 mph SW4.8 kmh SW 13.0 mph20.9 kmh 29.21 in989.2 mb 0.06 in1.5 mm 0.00 in0.0 mm 0.12 in3.0 mm
12:40 AM 58.5°F14.7°C 57.9°F14.4°C 98% 3.0 mph SW4.8 kmh SW 10.0 mph16.1 kmh 29.21 in989.2 mb 0.06 in1.5 mm 0.00 in0.0 mm 0.11 in2.8 mm
12:35 AM 58.4°F14.7°C 57.8°F14.3°C 98% 3.0 mph SSW4.8 kmh SSW 6.0 mph9.7 kmh 29.21 in989.2 mb 0.06 in1.5 mm 0.00 in0.0 mm 0.11 in2.8 mm
12:30 AM 58.2°F14.6°C 57.6°F14.2°C 98% 3.0 mph SSW4.8 kmh SSW 12.0 mph19.3 kmh 29.21 in989.2 mb 0.06 in1.5 mm 0.00 in0.0 mm 0.11 in2.8 mm
12:25 AM 58.1°F14.5°C 57.5°F14.2°C 98% 2.0 mph SSW3.2 kmh SSW 12.0 mph19.3 kmh 29.21 in989.2 mb 0.07 in1.8 mm 0.00 in0.0 mm 0.11 in2.8 mm
12:20 AM 57.9°F14.4°C 57.3°F14.1°C 98% 1.0 mph SSW1.6 kmh SSW 5.0 mph8.0 kmh 29.21 in989.2 mb 0.08 in2.0 mm 0.00 in0.0 mm 0.11 in2.8 mm
12:15 AM 57.7°F14.3°C 57.1°F13.9°C 98% 2.0 mph SE3.2 kmh SE 9.0 mph14.5 kmh 29.21 in989.2 mb 0.09 in2.3 mm 0.12 in3.0 mm 0.11 in2.8 mm
12:10 AM 57.6°F14.2°C 56.8°F13.8°C 97% 3.0 mph SE4.8 kmh SE 11.0 mph17.7 kmh 29.21 in989.2 mb 0.08 in2.0 mm 0.00 in0.0 mm 0.10 in2.5 mm
12:05 AM 57.3°F14.1°C 56.5°F13.6°C 97% 3.0 mph S4.8 kmh S 12.0 mph19.3 kmh 29.21 in989.2 mb 0.08 in2.0 mm 0.00 in0.0 mm 0.09 in2.3 mm
12:00 AM 57.2°F14.0°C 56.6°F13.7°C 98% 3.0 mph SSE4.8 kmh SSE 12.0 mph19.3 kmh 29.21 in989.2 mb 0.08 in2.0 mm 0.00 in0.0 mm 0.09 in2.3 mm